עמוד ראשי
METAR-TAF:

METAR-TAF

שדות תעופה :

אנקורג', אלסקה, ארצות הברית

קו רוחב: 61-13N, קו אורך: 149-51W, גובה: 42מטר

תצפית מזג אוויר נוכחית

הדו"ח נערך לפני 19דקות, בשעה 19:53 UTC
רוח 6קשר מכיוון מערב
טמפרטורת 13 צלסיוס
לחות 72%
לחץ 1018 hPa
ראות: 16.1קילומטר
שמיים נקיים

METAR: PAMR 171953Z 28006KT 10SM CLR 13/08 A3007 RMK AO2 SLP182 T01330083

זמן: 12:12 (20:12 UTC)


TAF: חסר

תצפיות ותחזיות מזג אוויר לגבי יותר מ- 4,000 שדות תעופה ברחבי העולם. דוחות METAR ו- TAF.

התחנות הזמינות מסומנות בנקודות צהובות ואדומות על גבי המפה.

העבר את העכבר לנקודה הצבעונית על מנת לראות את שם התחנה.

לאחר מכן, לחץ כדי לראות את תוכן ואת תחזיות מזג האוויר.

כדי לשנות את המפה: לחץ על הכפתורים הירוקים עם הפלוס השחור כדי להתקרב; על הכפתור הירוק עם המקף כדי להתרחק; או בחיצים הירוקים למפות סמוכות.


METAR-TAF: